createdAt,value
2023-04-15T00:01:24.252Z,57.75
2023-04-15T00:03:55.942Z,57.72
2023-04-15T00:06:29.069Z,57.72
2023-04-15T00:09:00.088Z,57.61
2023-04-15T00:11:31.280Z,57.72
2023-04-15T00:14:04.741Z,57.58
2023-04-15T00:16:35.769Z,57.62
2023-04-15T00:19:06.489Z,57.47
2023-04-15T00:21:37.962Z,57.45
2023-04-15T00:24:09.710Z,57.40
2023-04-15T00:26:40.307Z,57.42
2023-04-15T00:29:11.608Z,57.35
2023-04-15T00:31:42.399Z,57.40
2023-04-15T00:34:13.735Z,57.34
2023-04-15T00:36:44.778Z,57.41
2023-04-15T00:39:16.408Z,57.43
2023-04-15T00:41:47.535Z,57.47
2023-04-15T00:44:18.972Z,57.36
2023-04-15T00:46:53.102Z,57.23
2023-04-15T00:49:24.192Z,57.24
2023-04-15T00:51:55.703Z,57.22
2023-04-15T00:54:26.691Z,57.30
2023-04-15T00:56:58.086Z,57.34
2023-04-15T00:59:29.052Z,57.23
2023-04-15T01:02:00.191Z,57.30
2023-04-15T01:04:31.526Z,57.34
2023-04-15T01:07:02.688Z,57.20
2023-04-15T01:09:33.825Z,57.29
2023-04-15T01:12:05.355Z,57.20
2023-04-15T01:14:36.414Z,57.21
2023-04-15T01:17:07.495Z,57.23
2023-04-15T01:19:39.143Z,57.22
2023-04-15T01:22:10.164Z,57.35
2023-04-15T01:24:41.631Z,57.22
2023-04-15T01:27:12.994Z,57.27
2023-04-15T01:29:43.625Z,57.23
2023-04-15T01:32:14.560Z,57.16
2023-04-15T01:34:45.795Z,57.32
2023-04-15T01:37:16.556Z,57.23
2023-04-15T01:39:47.575Z,57.29
2023-04-15T01:42:18.525Z,57.25
2023-04-15T01:44:49.157Z,57.26
2023-04-15T01:47:19.829Z,57.16
2023-04-15T01:49:51.071Z,57.15
2023-04-15T01:52:22.105Z,56.97
2023-04-15T01:54:54.022Z,57.07
2023-04-15T01:57:24.677Z,56.83
2023-04-15T01:59:55.374Z,56.99
2023-04-15T02:02:26.629Z,56.98
2023-04-15T02:04:58.114Z,57.09
2023-04-15T02:07:32.252Z,57.13
2023-04-15T02:10:02.906Z,57.18
2023-04-15T02:12:33.527Z,57.34
2023-04-15T02:15:05.451Z,57.13
2023-04-15T02:17:38.628Z,56.89
2023-04-15T02:20:12.692Z,56.89
2023-04-15T02:22:43.674Z,56.74
2023-04-15T02:25:14.501Z,56.47
2023-04-15T02:27:45.955Z,56.24
2023-04-15T02:30:17.152Z,56.09
2023-04-15T02:32:48.519Z,56.11
2023-04-15T02:35:20.116Z,56.17
2023-04-15T02:37:53.122Z,56.02
2023-04-15T02:40:23.939Z,55.98
2023-04-15T02:42:54.609Z,55.98
2023-04-15T02:45:28.220Z,56.08
2023-04-15T02:47:59.047Z,56.04
2023-04-15T02:50:30.046Z,56.07
2023-04-15T02:53:02.897Z,55.95
2023-04-15T02:55:33.741Z,56.13
2023-04-15T02:58:04.767Z,56.13
2023-04-15T03:00:36.179Z,56.14
2023-04-15T03:03:07.715Z,56.20
2023-04-15T03:05:39.810Z,56.33
2023-04-15T03:08:10.460Z,56.23
2023-04-15T03:10:41.336Z,56.25
2023-04-15T03:13:11.918Z,56.34
2023-04-15T03:15:43.136Z,56.32
2023-04-15T03:18:13.778Z,56.45
2023-04-15T03:20:46.006Z,56.36
2023-04-15T03:23:16.989Z,56.51
2023-04-15T03:25:48.937Z,56.64
2023-04-15T03:28:19.733Z,56.49
2023-04-15T03:30:50.582Z,56.57
2023-04-15T03:33:21.186Z,56.64
2023-04-15T03:35:52.085Z,56.68
2023-04-15T03:38:22.789Z,56.65
2023-04-15T03:40:53.689Z,56.73
2023-04-15T03:43:24.342Z,56.90
2023-04-15T03:45:55.108Z,56.87
2023-04-15T03:48:25.838Z,56.80
2023-04-15T03:50:57.205Z,56.99
2023-04-15T03:53:28.037Z,56.89
2023-04-15T03:55:58.674Z,57.00
2023-04-15T03:58:29.416Z,57.08
2023-04-15T04:01:00.256Z,57.15
2023-04-15T04:03:31.284Z,57.10
2023-04-15T04:06:02.240Z,56.75
2023-04-15T04:08:32.893Z,56.95
2023-04-15T04:11:03.605Z,57.10
2023-04-15T04:13:34.358Z,57.28
2023-04-15T04:16:05.980Z,57.41
2023-04-15T04:18:37.074Z,57.38
2023-04-15T04:21:08.074Z,57.45
2023-04-15T04:23:38.844Z,57.42
2023-04-15T04:26:09.682Z,57.43
2023-04-15T04:28:40.753Z,57.44
2023-04-15T04:31:11.567Z,57.47
2023-04-15T04:33:42.694Z,57.49
2023-04-15T04:36:13.338Z,57.49
2023-04-15T04:38:43.994Z,57.44
2023-04-15T04:41:14.697Z,57.55
2023-04-15T04:43:45.394Z,57.53
2023-04-15T04:46:16.368Z,57.53
2023-04-15T04:48:47.259Z,57.52
2023-04-15T04:51:18.393Z,57.54
2023-04-15T04:53:49.224Z,57.46
2023-04-15T04:56:19.950Z,57.50
2023-04-15T04:58:51.536Z,57.60
2023-04-15T05:01:22.371Z,57.61
2023-04-15T05:03:53.613Z,57.57
2023-04-15T05:06:24.678Z,57.59
2023-04-15T05:08:56.753Z,57.55
2023-04-15T05:11:28.415Z,57.51
2023-04-15T05:13:59.898Z,57.61
2023-04-15T05:16:30.764Z,57.50
2023-04-15T05:19:01.732Z,57.61
2023-04-15T05:21:33.083Z,57.57
2023-04-15T05:24:03.827Z,57.56
2023-04-15T05:26:34.866Z,57.53
2023-04-15T05:29:05.790Z,57.53
2023-04-15T05:31:36.697Z,57.52
2023-04-15T05:34:07.790Z,57.47
2023-04-15T05:36:38.541Z,57.74
2023-04-15T05:39:09.753Z,57.52
2023-04-15T05:41:40.661Z,57.53
2023-04-15T05:44:11.747Z,57.57
2023-04-15T05:46:43.582Z,57.59
2023-04-15T05:49:14.383Z,57.50
2023-04-15T05:51:45.115Z,57.51
2023-04-15T05:54:17.357Z,57.47
2023-04-15T05:56:49.765Z,57.56
2023-04-15T05:59:20.758Z,57.51
2023-04-15T06:01:52.232Z,57.53
2023-04-15T06:04:23.066Z,57.50
2023-04-15T06:06:53.942Z,57.50
2023-04-15T06:09:24.888Z,57.48
2023-04-15T06:11:57.034Z,57.48
2023-04-15T06:14:28.105Z,57.48
2023-04-15T06:16:58.856Z,57.44
2023-04-15T06:19:29.801Z,57.39
2023-04-15T06:22:01.202Z,57.45
2023-04-15T06:24:33.208Z,57.43
2023-04-15T06:27:04.166Z,57.42
2023-04-15T06:29:35.070Z,57.45
2023-04-15T06:32:06.047Z,57.46
2023-04-15T06:34:36.965Z,57.45
2023-04-15T06:37:07.937Z,57.52
2023-04-15T06:39:38.866Z,57.37
2023-04-15T06:42:10.179Z,57.45
2023-04-15T06:44:41.068Z,57.51
2023-04-15T06:47:13.322Z,57.55
2023-04-15T06:49:45.036Z,57.58
2023-04-15T06:52:16.845Z,57.58
2023-04-15T06:54:47.829Z,57.65
2023-04-15T06:57:18.834Z,57.65
2023-04-15T06:59:49.588Z,57.68
2023-04-15T07:02:20.737Z,57.70
2023-04-15T07:04:52.273Z,57.68
2023-04-15T07:07:23.017Z,57.76
2023-04-15T07:09:54.173Z,57.80
2023-04-15T07:12:25.223Z,57.85
2023-04-15T07:14:56.058Z,57.83
2023-04-15T07:17:27.362Z,57.82
2023-04-15T07:19:58.344Z,57.97
2023-04-15T07:22:29.557Z,57.86
2023-04-15T07:25:00.437Z,58.00
2023-04-15T07:27:31.441Z,57.86
2023-04-15T07:30:02.551Z,58.00
2023-04-15T07:32:33.377Z,57.91
2023-04-15T07:35:04.305Z,58.00
2023-04-15T07:37:35.766Z,58.02
2023-04-15T07:40:09.038Z,57.97
2023-04-15T07:42:41.361Z,57.94
2023-04-15T07:45:14.039Z,57.78
2023-04-15T07:47:45.009Z,57.68
2023-04-15T07:50:17.349Z,57.68
2023-04-15T07:52:48.284Z,57.54
2023-04-15T07:55:21.587Z,57.52
2023-04-15T07:57:52.481Z,57.42
2023-04-15T08:00:23.736Z,57.47
2023-04-15T08:02:54.965Z,57.36
2023-04-15T08:05:25.924Z,57.31
2023-04-15T08:07:57.420Z,57.18
2023-04-15T08:10:30.767Z,57.08
2023-04-15T08:13:01.799Z,57.12
2023-04-15T08:15:33.209Z,57.09
2023-04-15T08:18:04.149Z,57.07
2023-04-15T08:20:35.202Z,56.96
2023-04-15T08:23:06.472Z,57.03
2023-04-15T08:25:37.285Z,56.96
2023-04-15T08:28:10.128Z,57.01
2023-04-15T08:30:41.630Z,56.88
2023-04-15T08:33:12.680Z,56.84
2023-04-15T08:35:43.615Z,56.82
2023-04-15T08:38:14.419Z,56.75
2023-04-15T08:40:46.999Z,56.78
2023-04-15T08:43:22.167Z,56.63
2023-04-15T08:45:53.568Z,55.70
2023-04-15T08:48:25.584Z,55.27
2023-04-15T08:50:56.676Z,55.19
2023-04-15T08:53:27.870Z,54.92
2023-04-15T08:56:01.646Z,54.42
2023-04-15T08:58:33.621Z,54.11
2023-04-15T09:01:04.628Z,53.84
2023-04-15T09:03:36.468Z,53.44
2023-04-15T09:06:09.533Z,53.05
2023-04-15T09:08:40.801Z,52.99
2023-04-15T09:11:12.452Z,52.72
2023-04-15T09:13:44.293Z,52.06
2023-04-15T09:16:15.715Z,52.30
2023-04-15T09:18:47.027Z,52.40
2023-04-15T09:21:19.868Z,52.41
2023-04-15T09:24:02.033Z,52.41
2023-04-15T09:26:38.188Z,52.36
2023-04-15T09:29:10.668Z,52.37
2023-04-15T09:31:42.577Z,52.49
2023-04-15T09:34:14.303Z,52.49
2023-04-15T09:36:57.862Z,52.68
2023-04-15T09:39:28.873Z,52.64
2023-04-15T09:42:09.319Z,52.80
2023-04-15T09:44:40.608Z,52.94
2023-04-15T09:47:30.330Z,52.96
2023-04-15T09:50:02.615Z,52.95
2023-04-15T09:52:33.556Z,53.10
2023-04-15T09:55:04.918Z,53.22
2023-04-15T09:57:41.332Z,53.28
2023-04-15T10:00:15.001Z,53.34
2023-04-15T10:02:47.097Z,53.33
2023-04-15T10:05:19.225Z,53.49
2023-04-15T10:07:50.952Z,53.59
2023-04-15T10:10:22.709Z,53.72
2023-04-15T10:12:55.834Z,53.58
2023-04-15T10:15:28.159Z,53.78
2023-04-15T10:18:00.464Z,53.78
2023-04-15T10:20:32.010Z,53.98
2023-04-15T10:23:03.393Z,53.92
2023-04-15T10:25:36.611Z,53.88
2023-04-15T10:28:09.644Z,53.89
2023-04-15T10:30:41.032Z,54.09
2023-04-15T10:33:14.903Z,54.03
2023-04-15T10:35:46.988Z,54.25
2023-04-15T10:38:38.849Z,54.22
2023-04-15T10:41:24.483Z,54.31
2023-04-15T10:43:58.017Z,54.19
2023-04-15T10:46:40.150Z,54.37
2023-04-15T10:49:12.894Z,54.40
2023-04-15T10:51:47.543Z,54.48
2023-04-15T10:54:33.173Z,54.51
2023-04-15T10:57:16.543Z,54.45
2023-04-15T11:00:14.550Z,54.53
2023-04-15T11:02:53.385Z,54.58
2023-04-15T11:05:45.514Z,54.63
2023-04-15T11:08:17.555Z,54.56
2023-04-15T11:10:57.709Z,54.72
2023-04-15T11:13:34.436Z,54.73
2023-04-15T11:16:06.360Z,54.74
2023-04-15T11:18:38.106Z,54.62
2023-04-15T11:21:10.616Z,54.67
2023-04-15T11:23:46.963Z,54.60
2023-04-15T11:26:18.256Z,54.70
2023-04-15T11:28:49.200Z,54.67
2023-04-15T11:31:21.126Z,54.72
2023-04-15T11:33:59.422Z,54.64
2023-04-15T11:36:32.612Z,54.68
2023-04-15T11:39:03.945Z,54.67
2023-04-15T11:41:35.069Z,54.60
2023-04-15T11:44:19.277Z,54.62
2023-04-15T11:46:50.467Z,54.66
2023-04-15T11:49:34.480Z,54.53
2023-04-15T11:52:13.772Z,54.61
2023-04-15T11:54:44.901Z,54.70
2023-04-15T11:57:16.380Z,54.71
2023-04-15T11:59:48.026Z,54.83
2023-04-15T12:02:19.479Z,54.84
2023-04-15T12:05:04.068Z,54.81
2023-04-15T12:07:35.250Z,54.88
2023-04-15T12:10:06.862Z,54.87
2023-04-15T12:12:37.766Z,54.86
2023-04-15T12:15:12.873Z,54.97
2023-04-15T12:17:52.168Z,54.87
2023-04-15T12:20:28.293Z,55.03
2023-04-15T12:23:08.834Z,55.00
2023-04-15T12:25:40.872Z,54.94
2023-04-15T12:28:17.418Z,54.96
2023-04-15T12:30:53.822Z,55.01
2023-04-15T12:33:24.909Z,55.03
2023-04-15T12:35:55.819Z,55.12
2023-04-15T12:38:26.785Z,55.24
2023-04-15T12:40:57.853Z,55.08
2023-04-15T12:43:28.780Z,55.17
2023-04-15T12:45:59.824Z,55.09
2023-04-15T12:48:30.872Z,55.20
2023-04-15T12:51:02.921Z,55.22
2023-04-15T12:53:35.027Z,55.21
2023-04-15T12:56:06.613Z,55.25
2023-04-15T12:58:37.619Z,55.34
2023-04-15T13:01:08.544Z,55.33
2023-04-15T13:03:39.459Z,55.42
2023-04-15T13:06:10.445Z,55.53
2023-04-15T13:08:47.973Z,55.42
2023-04-15T13:11:27.262Z,55.51
2023-04-15T13:13:58.568Z,55.47
2023-04-15T13:16:29.840Z,55.49
2023-04-15T13:19:00.959Z,55.58
2023-04-15T13:21:35.724Z,55.49
2023-04-15T13:24:08.158Z,55.45
2023-04-15T13:26:39.489Z,55.48
2023-04-15T13:29:11.706Z,55.49
2023-04-15T13:31:44.769Z,55.51
2023-04-15T13:34:16.909Z,55.47
2023-04-15T13:36:48.155Z,55.51
2023-04-15T13:39:19.119Z,55.44
2023-04-15T13:41:50.498Z,55.49
2023-04-15T13:44:22.314Z,55.41
2023-04-15T13:46:53.783Z,55.50
2023-04-15T13:49:24.738Z,55.54
2023-04-15T13:51:55.815Z,55.57
2023-04-15T13:54:37.954Z,55.55
2023-04-15T13:57:12.121Z,55.53
2023-04-15T13:59:44.159Z,55.59
2023-04-15T14:02:15.283Z,55.51
2023-04-15T14:04:46.525Z,55.58
2023-04-15T14:07:17.809Z,55.62
2023-04-15T14:09:49.039Z,55.50
2023-04-15T14:12:19.870Z,55.57
2023-04-15T14:14:50.710Z,55.54
2023-04-15T14:17:22.407Z,55.54
2023-04-15T14:19:53.569Z,55.61
2023-04-15T14:22:24.489Z,55.56
2023-04-15T14:24:55.911Z,55.58
2023-04-15T14:27:27.738Z,55.55
2023-04-15T14:29:59.063Z,55.50
2023-04-15T14:32:29.975Z,55.48
2023-04-15T14:35:01.112Z,55.50
2023-04-15T14:37:32.177Z,55.43
2023-04-15T14:40:03.437Z,55.44
2023-04-15T14:42:34.558Z,55.43
2023-04-15T14:45:06.183Z,55.33
2023-04-15T14:47:37.340Z,55.41
2023-04-15T14:50:09.989Z,55.38
2023-04-15T14:52:41.090Z,55.33
2023-04-15T14:55:13.612Z,55.36
2023-04-15T14:57:45.066Z,55.33
2023-04-15T15:00:17.510Z,55.38
2023-04-15T15:02:49.023Z,55.37
2023-04-15T15:05:20.929Z,55.26
2023-04-15T15:07:52.294Z,55.27
2023-04-15T15:10:32.667Z,55.26
2023-04-15T15:13:14.632Z,55.39
2023-04-15T15:15:46.350Z,55.12
2023-04-15T15:18:19.125Z,55.15
2023-04-15T15:20:50.511Z,55.09
2023-04-15T15:23:21.590Z,55.00
2023-04-15T15:25:52.618Z,54.90
2023-04-15T15:28:24.615Z,54.85
2023-04-15T15:30:56.134Z,54.78
2023-04-15T15:33:29.046Z,54.70
2023-04-15T15:36:01.395Z,54.71
2023-04-15T15:38:32.654Z,54.71
2023-04-15T15:41:03.597Z,54.58
2023-04-15T15:43:35.228Z,54.36
2023-04-15T15:46:06.634Z,54.27
2023-04-15T15:48:37.494Z,54.20
2023-04-15T15:51:09.704Z,54.10
2023-04-15T15:53:40.698Z,54.01
2023-04-15T15:56:11.999Z,53.91
2023-04-15T15:58:43.972Z,53.93
2023-04-15T16:01:15.587Z,53.76
2023-04-15T16:03:46.557Z,53.78
2023-04-15T16:06:17.627Z,53.63
2023-04-15T16:08:48.592Z,53.43
2023-04-15T16:11:19.711Z,53.38
2023-04-15T16:13:50.687Z,53.10
2023-04-15T16:16:22.156Z,53.07
2023-04-15T16:18:53.099Z,53.10
2023-04-15T16:21:25.034Z,52.85
2023-04-15T16:23:56.105Z,52.92
2023-04-15T16:26:27.048Z,52.86
2023-04-15T16:28:58.203Z,52.77
2023-04-15T16:31:29.349Z,52.62
2023-04-15T16:34:00.347Z,52.49
2023-04-15T16:36:31.810Z,52.62
2023-04-15T16:39:03.158Z,52.53
2023-04-15T16:41:38.647Z,52.42
2023-04-15T16:44:10.986Z,52.32
2023-04-15T16:46:42.059Z,52.19
2023-04-15T16:49:13.020Z,52.21
2023-04-15T16:51:44.198Z,52.11
2023-04-15T16:54:15.168Z,51.96
2023-04-15T16:56:46.314Z,51.97
2023-04-15T16:59:17.670Z,51.84
2023-04-15T17:01:50.088Z,51.66
2023-04-15T17:04:21.774Z,51.82
2023-04-15T17:06:53.157Z,51.59
2023-04-15T17:09:25.391Z,51.52
2023-04-15T17:11:56.949Z,51.37
2023-04-15T17:14:28.971Z,51.52
2023-04-15T17:17:00.129Z,51.50
2023-04-15T17:19:31.157Z,51.38
2023-04-15T17:22:02.581Z,51.23
2023-04-15T17:24:33.501Z,51.25
2023-04-15T17:27:04.565Z,51.12
2023-04-15T17:29:36.192Z,51.13
2023-04-15T17:32:08.085Z,51.15
2023-04-15T17:34:49.728Z,51.02
2023-04-15T17:37:21.870Z,51.07
2023-04-15T17:39:53.426Z,51.09
2023-04-15T17:42:24.479Z,50.81
2023-04-15T17:44:55.476Z,50.91
2023-04-15T17:47:26.722Z,50.92
2023-04-15T17:49:57.655Z,50.74
2023-04-15T17:52:28.557Z,50.82
2023-04-15T17:54:59.601Z,50.60
2023-04-15T17:57:31.011Z,50.69
2023-04-15T18:00:02.553Z,50.70
2023-04-15T18:02:36.135Z,50.76
2023-04-15T18:05:09.463Z,50.85
2023-04-15T18:07:40.524Z,50.90
2023-04-15T18:10:12.550Z,51.13
2023-04-15T18:12:43.480Z,50.98
2023-04-15T18:15:15.805Z,51.09
2023-04-15T18:17:47.417Z,51.12
2023-04-15T18:20:19.142Z,51.18
2023-04-15T18:22:50.809Z,51.34
2023-04-15T18:25:21.782Z,51.22
2023-04-15T18:27:52.534Z,51.43
2023-04-15T18:30:24.156Z,51.67
2023-04-15T18:32:55.574Z,51.54
2023-04-15T18:35:26.847Z,51.58
2023-04-15T18:37:58.261Z,51.72
2023-04-15T18:40:29.212Z,51.56
2023-04-15T18:43:00.511Z,51.72
2023-04-15T18:45:32.672Z,51.70
2023-04-15T18:48:04.365Z,51.91
2023-04-15T18:50:35.236Z,51.61
2023-04-15T18:53:06.079Z,51.68
2023-04-15T18:55:38.449Z,51.92
2023-04-15T18:58:09.770Z,51.93
2023-04-15T19:00:43.862Z,52.08
2023-04-15T19:03:15.092Z,52.07
2023-04-15T19:05:46.013Z,51.74
2023-04-15T19:08:16.947Z,51.89
2023-04-15T19:10:48.253Z,52.01
2023-04-15T19:13:20.474Z,52.11
2023-04-15T19:15:52.087Z,52.05
2023-04-15T19:18:23.001Z,52.32
2023-04-15T19:20:56.638Z,52.25
2023-04-15T19:23:27.851Z,52.23
2023-04-15T19:26:00.532Z,52.42
2023-04-15T19:28:32.180Z,52.25
2023-04-15T19:31:03.232Z,52.40
2023-04-15T19:33:34.430Z,52.54
2023-04-15T19:36:07.325Z,52.52
2023-04-15T19:38:38.548Z,52.58
2023-04-15T19:41:11.105Z,52.47
2023-04-15T19:43:42.118Z,52.67
2023-04-15T19:46:13.906Z,52.95
2023-04-15T19:48:45.221Z,52.79
2023-04-15T19:51:16.567Z,52.82
2023-04-15T19:53:49.685Z,52.78
2023-04-15T19:56:20.750Z,52.87
2023-04-15T19:58:53.142Z,53.05
2023-04-15T20:01:24.877Z,52.87
2023-04-15T20:03:56.811Z,52.89
2023-04-15T20:06:29.156Z,52.93
2023-04-15T20:09:01.418Z,53.04
2023-04-15T20:12:05.639Z,53.13
2023-04-15T20:14:25.149Z,52.99
2023-04-15T20:16:56.403Z,53.38
2023-04-15T20:19:27.336Z,53.05
2023-04-15T20:21:58.754Z,53.30
2023-04-15T20:24:30.044Z,53.40
2023-04-15T20:27:01.877Z,53.21
2023-04-15T20:29:32.874Z,53.44
2023-04-15T20:32:03.921Z,53.29
2023-04-15T20:34:35.199Z,53.37
2023-04-15T20:37:06.771Z,53.54
2023-04-15T20:39:39.055Z,53.50
2023-04-15T20:42:10.673Z,53.54
2023-04-15T20:44:43.281Z,53.39
2023-04-15T20:47:14.286Z,53.43
2023-04-15T20:49:45.834Z,53.59
2023-04-15T20:52:16.708Z,53.54
2023-04-15T20:54:48.219Z,53.58
2023-04-15T20:57:20.365Z,53.63
2023-04-15T20:59:51.503Z,53.58
2023-04-15T21:02:23.482Z,53.53
2023-04-15T21:04:54.360Z,53.66
2023-04-15T21:07:25.249Z,53.88
2023-04-15T21:09:56.595Z,53.89
2023-04-15T21:12:27.385Z,53.80
2023-04-15T21:14:58.296Z,53.79
2023-04-15T21:17:29.241Z,53.88
2023-04-15T21:20:00.069Z,53.98
2023-04-15T21:22:31.341Z,53.92
2023-04-15T21:25:02.099Z,53.95
2023-04-15T21:27:32.991Z,54.10
2023-04-15T21:30:03.856Z,54.09
2023-04-15T21:32:35.837Z,54.15
2023-04-15T21:35:09.219Z,54.05
2023-04-15T21:37:40.072Z,54.25
2023-04-15T21:40:13.470Z,54.30
2023-04-15T21:42:44.582Z,54.26
2023-04-15T21:45:16.395Z,54.07
2023-04-15T21:48:04.926Z,54.20
2023-04-15T21:50:38.396Z,54.31
2023-04-15T21:53:10.875Z,54.54
2023-04-15T21:55:41.901Z,54.49
2023-04-15T21:58:12.884Z,54.43
2023-04-15T22:00:43.806Z,54.45
2023-04-15T22:03:14.749Z,54.49
2023-04-15T22:05:47.954Z,54.52
2023-04-15T22:08:18.887Z,54.58
2023-04-15T22:10:49.619Z,54.54
2023-04-15T22:13:21.487Z,54.64
2023-04-15T22:15:52.211Z,54.57
2023-04-15T22:18:22.967Z,54.67
2023-04-15T22:20:53.985Z,54.71
2023-04-15T22:23:24.802Z,54.74
2023-04-15T22:25:55.606Z,54.80
2023-04-15T22:28:26.730Z,54.90
2023-04-15T22:30:58.261Z,55.03
2023-04-15T22:33:29.233Z,55.00
2023-04-15T22:36:00.070Z,54.95
2023-04-15T22:38:31.346Z,54.86
2023-04-15T22:41:02.161Z,55.00
2023-04-15T22:43:33.035Z,55.07
2023-04-15T22:46:04.471Z,55.01
2023-04-15T22:48:35.608Z,55.12
2023-04-15T22:51:07.451Z,55.18
2023-04-15T22:53:38.699Z,55.15
2023-04-15T22:56:10.173Z,55.32
2023-04-15T22:58:41.144Z,55.36
2023-04-15T23:01:12.290Z,55.43
2023-04-15T23:03:57.510Z,55.47
2023-04-15T23:06:34.019Z,55.47
2023-04-15T23:09:05.028Z,55.69
2023-04-15T23:11:35.685Z,55.64
2023-04-15T23:14:06.436Z,55.70
2023-04-15T23:16:37.432Z,55.64
2023-04-15T23:19:08.793Z,55.67
2023-04-15T23:21:39.970Z,55.73
2023-04-15T23:24:11.013Z,55.71
2023-04-15T23:26:42.054Z,55.78
2023-04-15T23:29:13.244Z,55.77
2023-04-15T23:31:44.281Z,55.85
2023-04-15T23:34:15.316Z,55.85
2023-04-15T23:36:46.885Z,55.88
2023-04-15T23:39:17.709Z,55.89
2023-04-15T23:41:49.169Z,56.01
2023-04-15T23:44:20.324Z,56.00
2023-04-15T23:46:51.512Z,55.98
2023-04-15T23:49:22.581Z,56.07
2023-04-15T23:51:53.428Z,56.17
2023-04-15T23:54:24.368Z,56.26
2023-04-15T23:56:55.722Z,56.23
2023-04-15T23:59:26.601Z,56.16
